createdAt,value
2023-03-15T00:01:27.455Z,6.93
2023-03-15T00:03:57.104Z,8.50
2023-03-15T00:06:24.251Z,7.10
2023-03-15T00:08:52.023Z,8.03
2023-03-15T00:11:19.660Z,8.73
2023-03-15T00:13:47.050Z,9.07
2023-03-15T00:16:18.240Z,8.73
2023-03-15T00:18:47.127Z,8.47
2023-03-15T00:21:14.883Z,11.13
2023-03-15T00:23:41.622Z,10.00
2023-03-15T00:26:08.450Z,8.87
2023-03-15T00:28:35.196Z,9.27
2023-03-15T00:31:20.551Z,10.73
2023-03-15T00:33:48.307Z,7.77
2023-03-15T00:36:15.496Z,9.53
2023-03-15T00:38:44.211Z,11.00
2023-03-15T00:41:16.480Z,11.38
2023-03-15T00:43:44.651Z,9.53
2023-03-15T00:46:12.074Z,8.77
2023-03-15T00:48:39.164Z,8.87
2023-03-15T00:51:12.038Z,8.77
2023-03-15T00:53:40.847Z,9.03
2023-03-15T00:56:13.603Z,7.67
2023-03-15T00:58:40.998Z,9.97
2023-03-15T01:01:10.396Z,5.00
2023-03-15T01:03:37.212Z,7.37
2023-03-15T01:06:24.735Z,13.17
2023-03-15T01:08:52.504Z,6.30
2023-03-15T01:11:24.754Z,8.70
2023-03-15T01:13:52.998Z,7.03
2023-03-15T01:16:20.319Z,10.00
2023-03-15T01:18:47.459Z,7.20
2023-03-15T01:21:15.782Z,7.67
2023-03-15T01:23:42.566Z,10.70
2023-03-15T01:26:12.415Z,9.93
2023-03-15T01:28:39.262Z,7.87
2023-03-15T01:31:06.107Z,4.83
2023-03-15T01:33:32.923Z,7.97
2023-03-15T01:36:06.195Z,5.50
2023-03-15T01:38:33.807Z,8.13
2023-03-15T01:41:00.718Z,7.60
2023-03-15T01:43:29.405Z,10.03
2023-03-15T01:46:04.804Z,9.10
2023-03-15T01:48:39.879Z,8.17
2023-03-15T01:51:31.376Z,11.20
2023-03-15T01:54:10.455Z,8.07
2023-03-15T01:56:40.968Z,6.63
2023-03-15T01:59:12.993Z,10.57
2023-03-15T02:01:45.599Z,9.03
2023-03-15T02:04:17.276Z,10.27
2023-03-15T02:06:46.718Z,5.43
2023-03-15T02:09:17.445Z,6.23
2023-03-15T02:11:44.210Z,6.50
2023-03-15T02:14:13.430Z,9.57
2023-03-15T02:16:40.343Z,4.80
2023-03-15T02:19:21.180Z,6.17
2023-03-15T02:21:54.672Z,8.67
2023-03-15T02:24:39.038Z,6.77
2023-03-15T02:27:06.332Z,4.63
2023-03-15T02:29:33.140Z,7.03
2023-03-15T02:32:04.601Z,5.70
2023-03-15T02:34:32.129Z,4.47
2023-03-15T02:36:58.763Z,7.00
2023-03-15T02:39:27.265Z,7.50
2023-03-15T02:41:58.210Z,6.20
2023-03-15T02:44:32.367Z,4.37
2023-03-15T02:47:07.346Z,5.33
2023-03-15T02:49:39.663Z,5.30
2023-03-15T02:52:06.718Z,7.73
2023-03-15T02:54:34.310Z,6.07
2023-03-15T02:57:02.374Z,5.47
2023-03-15T02:59:29.056Z,5.37
2023-03-15T03:01:55.790Z,6.63
2023-03-15T03:04:22.911Z,3.90
2023-03-15T03:06:49.640Z,5.37
2023-03-15T03:09:16.397Z,3.83
2023-03-15T03:11:44.647Z,4.60
2023-03-15T03:14:14.148Z,4.33
2023-03-15T03:16:42.604Z,5.53
2023-03-15T03:19:12.474Z,5.27
2023-03-15T03:21:39.118Z,5.87
2023-03-15T03:24:06.132Z,6.50
2023-03-15T03:26:33.377Z,7.03
2023-03-15T03:29:00.263Z,7.73
2023-03-15T03:31:28.263Z,5.47
2023-03-15T03:33:56.447Z,4.40
2023-03-15T03:36:24.965Z,5.27
2023-03-15T03:38:51.973Z,7.47
2023-03-15T03:41:18.745Z,6.57
2023-03-15T03:43:45.481Z,6.63
2023-03-15T03:46:12.252Z,4.67
2023-03-15T03:48:39.040Z,5.43
2023-03-15T03:51:06.180Z,12.37
2023-03-15T03:53:32.879Z,7.83
2023-03-15T03:55:59.578Z,5.80
2023-03-15T03:58:26.324Z,9.10
2023-03-15T04:00:54.635Z,7.87
2023-03-15T04:03:27.117Z,5.90
2023-03-15T04:05:55.048Z,6.67
2023-03-15T04:08:22.913Z,10.37
2023-03-15T04:10:58.620Z,7.07
2023-03-15T04:13:25.809Z,8.83
2023-03-15T04:15:57.605Z,7.30
2023-03-15T04:18:24.865Z,8.33
2023-03-15T04:20:54.645Z,6.37
2023-03-15T04:23:23.244Z,6.37
2023-03-15T04:25:51.705Z,7.47
2023-03-15T04:28:19.520Z,7.20
2023-03-15T04:30:48.220Z,6.73
2023-03-15T04:33:14.920Z,10.17
2023-03-15T04:35:42.737Z,9.00
2023-03-15T04:38:09.831Z,5.57
2023-03-15T04:40:37.003Z,11.70
2023-03-15T04:43:05.374Z,11.07
2023-03-15T04:45:33.007Z,6.63
2023-03-15T04:48:01.738Z,7.33
2023-03-15T04:50:30.558Z,11.23
2023-03-15T04:53:00.036Z,12.83
2023-03-15T04:55:27.093Z,16.10
2023-03-15T04:57:53.907Z,8.17
2023-03-15T05:00:21.736Z,9.13
2023-03-15T05:02:55.143Z,7.90
2023-03-15T05:05:23.930Z,6.73
2023-03-15T05:07:50.957Z,6.13
2023-03-15T05:10:17.977Z,7.67
2023-03-15T05:12:44.708Z,8.83
2023-03-15T05:15:12.073Z,7.80
2023-03-15T05:17:38.782Z,6.00
2023-03-15T05:20:12.100Z,9.63
2023-03-15T05:22:40.833Z,8.07
2023-03-15T05:25:09.049Z,9.93
2023-03-15T05:27:36.018Z,9.83
2023-03-15T05:30:03.872Z,7.70
2023-03-15T05:32:34.526Z,11.10
2023-03-15T05:35:02.198Z,8.35
2023-03-15T05:37:28.972Z,11.67
2023-03-15T05:39:55.865Z,6.90
2023-03-15T05:42:26.198Z,11.77
2023-03-15T05:44:57.133Z,9.33
2023-03-15T05:47:24.011Z,7.17
2023-03-15T05:49:50.758Z,6.80
2023-03-15T05:52:17.606Z,6.40
2023-03-15T05:54:44.483Z,8.13
2023-03-15T05:57:11.724Z,12.20
2023-03-15T05:59:38.454Z,11.43
2023-03-15T06:02:05.265Z,11.10
2023-03-15T06:04:32.050Z,7.63
2023-03-15T06:06:58.886Z,10.80
2023-03-15T06:09:25.760Z,10.73
2023-03-15T06:11:53.681Z,8.33
2023-03-15T06:14:20.497Z,10.07
2023-03-15T06:16:47.319Z,7.50
2023-03-15T06:19:14.222Z,5.50
2023-03-15T06:21:40.936Z,10.17
2023-03-15T06:24:07.960Z,8.10
2023-03-15T06:26:34.732Z,5.70
2023-03-15T06:29:01.397Z,5.87
2023-03-15T06:31:28.149Z,6.37
2023-03-15T06:33:55.007Z,5.77
2023-03-15T06:36:21.898Z,4.00
2023-03-15T06:38:48.628Z,8.50
2023-03-15T06:41:15.712Z,10.47
2023-03-15T06:43:45.523Z,10.87
2023-03-15T06:46:12.229Z,8.23
2023-03-15T06:48:38.911Z,10.73
2023-03-15T06:51:06.007Z,4.33
2023-03-15T06:53:32.793Z,8.37
2023-03-15T06:55:59.514Z,7.93
2023-03-15T06:58:26.377Z,5.70
2023-03-15T07:00:53.229Z,12.47
2023-03-15T07:03:21.660Z,11.07
2023-03-15T07:05:52.658Z,7.80
2023-03-15T07:08:20.267Z,8.33
2023-03-15T07:10:48.531Z,11.83
2023-03-15T07:13:15.711Z,11.90
2023-03-15T07:15:42.578Z,7.57
2023-03-15T07:18:09.259Z,10.83
2023-03-15T07:20:37.726Z,7.80
2023-03-15T07:23:04.875Z,7.07
2023-03-15T07:25:44.943Z,12.60
2023-03-15T07:28:18.995Z,8.40
2023-03-15T07:30:53.249Z,13.97
2023-03-15T07:33:22.649Z,6.60
2023-03-15T07:35:50.858Z,6.67
2023-03-15T07:38:18.021Z,6.03
2023-03-15T07:40:45.004Z,10.10
2023-03-15T07:43:12.237Z,6.77
2023-03-15T07:45:38.959Z,9.40
2023-03-15T07:48:06.152Z,4.83
2023-03-15T07:50:32.907Z,7.57
2023-03-15T07:52:59.619Z,7.67
2023-03-15T07:55:26.424Z,5.40
2023-03-15T07:57:53.390Z,8.50
2023-03-15T08:00:20.759Z,9.27
2023-03-15T08:02:47.462Z,7.53
2023-03-15T08:05:14.231Z,6.00
2023-03-15T08:07:40.975Z,7.40
2023-03-15T08:10:08.237Z,5.70
2023-03-15T08:12:35.296Z,7.87
2023-03-15T08:15:01.995Z,6.53
2023-03-15T08:17:29.064Z,5.17
2023-03-15T08:19:55.815Z,6.83
2023-03-15T08:22:24.056Z,7.03
2023-03-15T08:24:53.259Z,4.80
2023-03-15T08:27:20.007Z,8.77
2023-03-15T08:29:46.738Z,7.90
2023-03-15T08:32:13.503Z,6.63
2023-03-15T08:34:40.387Z,9.40
2023-03-15T08:37:07.467Z,4.70
2023-03-15T08:39:36.326Z,7.18
2023-03-15T08:42:03.135Z,6.40
2023-03-15T08:44:29.801Z,5.97
2023-03-15T08:46:56.606Z,7.97
2023-03-15T08:49:23.378Z,8.50
2023-03-15T08:51:50.007Z,5.03
2023-03-15T08:54:17.262Z,5.53
2023-03-15T08:56:44.584Z,6.23
2023-03-15T08:59:12.830Z,6.67
2023-03-15T09:01:41.794Z,6.07
2023-03-15T09:04:09.183Z,6.70
2023-03-15T09:06:35.904Z,9.70
2023-03-15T09:09:03.739Z,5.37
2023-03-15T09:11:30.451Z,10.40
2023-03-15T09:13:57.188Z,4.07
2023-03-15T09:16:24.031Z,3.10
2023-03-15T09:18:50.847Z,8.57
2023-03-15T09:21:17.671Z,4.40
2023-03-15T09:23:44.374Z,5.60
2023-03-15T09:26:11.125Z,4.43
2023-03-15T09:28:37.878Z,5.10
2023-03-15T09:31:07.234Z,5.43
2023-03-15T09:33:34.055Z,4.70
2023-03-15T09:36:00.981Z,4.67
2023-03-15T09:38:28.146Z,4.60
2023-03-15T09:41:00.110Z,2.93
2023-03-15T09:43:54.020Z,3.30
2023-03-15T09:46:30.955Z,5.67
2023-03-15T09:49:01.936Z,3.00
2023-03-15T09:51:47.939Z,5.20
2023-03-15T09:54:26.015Z,3.60
2023-03-15T09:57:00.324Z,7.90
2023-03-15T09:59:32.973Z,4.70
2023-03-15T10:02:03.253Z,4.03
2023-03-15T10:04:32.234Z,4.40
2023-03-15T10:07:04.304Z,3.87
2023-03-15T10:09:34.347Z,6.20
2023-03-15T10:12:10.453Z,4.60
2023-03-15T10:15:02.249Z,7.87
2023-03-15T10:17:47.788Z,5.17
2023-03-15T10:20:26.595Z,4.20
2023-03-15T10:23:00.372Z,3.87
2023-03-15T10:25:29.829Z,6.40
2023-03-15T10:28:31.209Z,5.83
2023-03-15T10:31:02.236Z,4.30
2023-03-15T10:33:34.105Z,7.30
2023-03-15T10:36:11.530Z,5.33
2023-03-15T10:38:41.297Z,6.90
2023-03-15T10:41:08.828Z,5.10
2023-03-15T10:43:38.062Z,3.60
2023-03-15T10:46:21.242Z,4.13
2023-03-15T10:49:12.547Z,4.17
2023-03-15T10:51:47.559Z,5.43
2023-03-15T10:54:25.030Z,6.17
2023-03-15T10:57:04.953Z,2.93
2023-03-15T10:59:35.055Z,5.07
2023-03-15T11:02:24.753Z,3.27
2023-03-15T11:05:03.547Z,4.07
2023-03-15T11:07:35.377Z,4.10
2023-03-15T11:10:05.732Z,3.17
2023-03-15T11:12:34.961Z,2.57
2023-03-15T11:15:13.396Z,2.83
2023-03-15T11:17:45.652Z,3.97
2023-03-15T11:20:34.120Z,6.67
2023-03-15T11:23:11.673Z,2.37
2023-03-15T11:25:39.312Z,3.20
2023-03-15T11:28:06.197Z,4.80
2023-03-15T11:30:33.316Z,8.00
2023-03-15T11:33:07.514Z,6.63
2023-03-15T11:35:48.526Z,5.20
2023-03-15T11:38:33.474Z,4.07
2023-03-15T11:41:02.474Z,5.33
2023-03-15T11:43:50.156Z,2.67
2023-03-15T11:46:50.544Z,4.73
2023-03-15T11:49:44.809Z,3.03
2023-03-15T11:52:12.056Z,3.10
2023-03-15T11:54:39.083Z,7.03
2023-03-15T11:57:27.140Z,3.03
2023-03-15T11:59:53.869Z,2.97
2023-03-15T12:02:21.233Z,2.37
2023-03-15T12:04:49.673Z,5.87
2023-03-15T12:07:19.586Z,23.53
2023-03-15T12:12:26.218Z,3.93
2023-03-15T12:15:02.857Z,7.47
2023-03-15T12:17:42.526Z,2.27
2023-03-15T12:20:11.989Z,10.73
2023-03-15T12:22:43.164Z,5.80
2023-03-15T12:25:31.176Z,4.87
2023-03-15T12:27:59.518Z,2.77
2023-03-15T12:30:33.516Z,6.33
2023-03-15T12:33:02.664Z,3.80
2023-03-15T12:35:41.599Z,10.27
2023-03-15T12:38:18.337Z,5.47
2023-03-15T12:40:54.496Z,9.37
2023-03-15T12:43:46.381Z,6.20
2023-03-15T12:46:44.037Z,2.40
2023-03-15T12:49:22.583Z,3.90
2023-03-15T12:52:04.078Z,2.93
2023-03-15T12:54:43.851Z,6.03
2023-03-15T12:57:13.285Z,4.37
2023-03-15T12:59:56.472Z,6.03
2023-03-15T13:02:43.796Z,5.00
2023-03-15T13:05:16.483Z,4.97
2023-03-15T13:08:09.148Z,3.30
2023-03-15T13:10:53.048Z,4.73
2023-03-15T13:13:46.058Z,3.13
2023-03-15T13:16:24.505Z,5.23
2023-03-15T13:19:14.160Z,3.90
2023-03-15T13:22:24.393Z,4.00
2023-03-15T13:25:09.793Z,4.43
2023-03-15T13:27:51.995Z,8.43
2023-03-15T13:30:30.343Z,2.50
2023-03-15T13:33:08.449Z,5.25
2023-03-15T13:35:54.983Z,2.33
2023-03-15T13:38:23.329Z,3.30
2023-03-15T13:40:50.023Z,4.70
2023-03-15T13:43:16.924Z,4.43
2023-03-15T13:45:44.173Z,2.73
2023-03-15T13:48:13.277Z,3.33
2023-03-15T13:50:40.557Z,6.97
2023-03-15T13:53:07.250Z,5.70
2023-03-15T13:55:36.197Z,3.97
2023-03-15T13:58:08.084Z,5.20
2023-03-15T14:00:36.214Z,4.23
2023-03-15T14:03:13.076Z,6.90
2023-03-15T14:05:46.722Z,4.83
2023-03-15T14:08:25.855Z,5.07
2023-03-15T14:11:10.140Z,4.53
2023-03-15T14:13:59.383Z,4.00
2023-03-15T14:16:32.563Z,5.40
2023-03-15T14:19:29.567Z,2.53
2023-03-15T14:22:02.121Z,3.33
2023-03-15T14:24:37.681Z,3.37
2023-03-15T14:27:31.067Z,2.13
2023-03-15T14:30:00.622Z,8.07
2023-03-15T14:32:33.332Z,3.67
2023-03-15T14:35:19.811Z,3.90
2023-03-15T14:37:47.183Z,3.80
2023-03-15T14:40:20.854Z,5.93
2023-03-15T14:42:48.901Z,3.60
2023-03-15T14:45:18.414Z,4.80
2023-03-15T14:47:56.685Z,3.58
2023-03-15T14:50:26.604Z,5.73
2023-03-15T14:52:54.114Z,6.57
2023-03-15T14:55:23.660Z,4.47
2023-03-15T14:57:51.335Z,2.37
2023-03-15T15:00:18.807Z,3.03
2023-03-15T15:02:47.512Z,3.83
2023-03-15T15:05:34.604Z,2.57
2023-03-15T15:08:07.167Z,5.00
2023-03-15T15:10:34.754Z,2.87
2023-03-15T15:13:06.393Z,2.50
2023-03-15T15:15:44.008Z,1.97
2023-03-15T15:18:20.954Z,5.33
2023-03-15T15:20:47.772Z,3.90
2023-03-15T15:23:23.096Z,3.17
2023-03-15T15:25:51.549Z,5.25
2023-03-15T15:28:31.229Z,3.37
2023-03-15T15:31:00.962Z,3.90
2023-03-15T15:33:27.575Z,2.50
2023-03-15T15:35:56.550Z,3.90
2023-03-15T15:38:33.082Z,5.63
2023-03-15T15:40:59.761Z,3.10
2023-03-15T15:43:26.677Z,4.90
2023-03-15T15:45:53.322Z,2.80
2023-03-15T15:48:19.933Z,5.77
2023-03-15T15:50:46.555Z,2.90
2023-03-15T15:53:18.034Z,3.90
2023-03-15T15:55:45.703Z,3.63
2023-03-15T15:58:13.677Z,4.50
2023-03-15T16:00:40.213Z,3.25
2023-03-15T16:03:15.097Z,2.80
2023-03-15T16:05:42.036Z,4.67
2023-03-15T16:08:22.501Z,4.00
2023-03-15T16:10:49.099Z,4.73
2023-03-15T16:13:15.830Z,8.00
2023-03-15T16:15:42.450Z,3.03
2023-03-15T16:18:12.694Z,4.27
2023-03-15T16:20:42.686Z,2.50
2023-03-15T16:23:20.905Z,3.87
2023-03-15T16:25:55.415Z,4.67
2023-03-15T16:28:25.722Z,3.83
2023-03-15T16:30:52.367Z,3.10
2023-03-15T16:33:20.812Z,3.17
2023-03-15T16:35:53.535Z,2.97
2023-03-15T16:38:24.502Z,2.60
2023-03-15T16:40:53.050Z,3.10
2023-03-15T16:43:20.532Z,4.43
2023-03-15T16:45:47.493Z,3.57
2023-03-15T16:48:14.423Z,3.00
2023-03-15T16:50:42.268Z,3.70
2023-03-15T16:53:12.430Z,5.30
2023-03-15T16:55:39.686Z,3.13
2023-03-15T16:58:19.650Z,3.20
2023-03-15T17:00:48.051Z,2.60
2023-03-15T17:03:16.151Z,4.20
2023-03-15T17:05:47.290Z,5.27
2023-03-15T17:08:19.882Z,3.27
2023-03-15T17:10:47.244Z,3.10
2023-03-15T17:13:17.024Z,3.83
2023-03-15T17:15:43.666Z,5.37
2023-03-15T17:18:17.820Z,3.03
2023-03-15T17:20:48.291Z,4.53
2023-03-15T17:23:16.097Z,4.23
2023-03-15T17:25:42.701Z,3.47
2023-03-15T17:28:09.393Z,3.93
2023-03-15T17:30:37.168Z,3.90
2023-03-15T17:33:04.785Z,3.73
2023-03-15T17:35:35.516Z,5.50
2023-03-15T17:38:04.009Z,3.43
2023-03-15T17:40:33.593Z,4.40
2023-03-15T17:43:02.838Z,4.70
2023-03-15T17:45:32.029Z,6.40
2023-03-15T17:47:59.538Z,4.07
2023-03-15T17:50:28.703Z,5.73
2023-03-15T17:52:57.747Z,6.10
2023-03-15T17:55:26.594Z,6.40
2023-03-15T17:57:55.428Z,4.70
2023-03-15T18:00:23.620Z,5.97
2023-03-15T18:02:56.931Z,5.90
2023-03-15T18:05:27.285Z,5.07
2023-03-15T18:08:00.828Z,4.57
2023-03-15T18:10:41.574Z,4.70
2023-03-15T18:13:12.311Z,6.67
2023-03-15T18:15:39.273Z,5.70
2023-03-15T18:18:06.571Z,5.70
2023-03-15T18:20:33.386Z,5.40
2023-03-15T18:23:00.101Z,6.53
2023-03-15T18:25:31.788Z,7.47
2023-03-15T18:27:58.709Z,8.23
2023-03-15T18:30:27.999Z,8.37
2023-03-15T18:35:34.125Z,12.97
2023-03-15T18:38:01.014Z,14.07
2023-03-15T18:40:30.123Z,17.97
2023-03-15T18:42:57.926Z,17.73
2023-03-15T18:45:30.541Z,28.60
2023-03-15T18:47:59.729Z,28.63
2023-03-15T18:50:27.646Z,30.97
2023-03-15T18:52:54.703Z,26.40
2023-03-15T18:55:22.151Z,23.53
2023-03-15T18:57:50.468Z,25.17
2023-03-15T19:00:25.776Z,19.83
2023-03-15T19:02:54.833Z,16.00
2023-03-15T19:05:21.507Z,10.90
2023-03-15T19:07:48.445Z,11.70
2023-03-15T19:10:16.904Z,12.67
2023-03-15T19:12:46.888Z,12.50
2023-03-15T19:15:17.139Z,11.30
2023-03-15T19:17:45.258Z,11.47
2023-03-15T19:20:14.312Z,11.40
2023-03-15T19:22:41.468Z,12.37
2023-03-15T19:25:11.337Z,13.67
2023-03-15T19:27:38.231Z,12.13
2023-03-15T19:30:08.541Z,17.57
2023-03-15T19:32:35.899Z,17.83
2023-03-15T19:35:02.615Z,24.03
2023-03-15T19:37:29.187Z,14.70
2023-03-15T19:39:55.789Z,15.10
2023-03-15T19:42:22.506Z,16.43
2023-03-15T19:44:49.119Z,17.90
2023-03-15T19:47:15.676Z,18.85
2023-03-15T19:49:42.247Z,15.87
2023-03-15T19:52:09.553Z,14.33
2023-03-15T19:54:36.260Z,15.20
2023-03-15T19:57:02.848Z,13.63
2023-03-15T19:59:29.399Z,16.20
2023-03-15T20:01:56.189Z,14.90
2023-03-15T20:04:22.863Z,15.13
2023-03-15T20:06:49.488Z,16.07
2023-03-15T20:09:16.045Z,18.00
2023-03-15T20:11:42.623Z,18.53
2023-03-15T20:14:09.165Z,17.13
2023-03-15T20:16:35.707Z,16.57
2023-03-15T20:19:02.286Z,18.67
2023-03-15T20:21:29.623Z,17.60
2023-03-15T20:23:56.465Z,20.97
2023-03-15T20:26:25.115Z,20.47
2023-03-15T20:28:52.570Z,21.27
2023-03-15T20:31:19.701Z,17.63
2023-03-15T20:33:49.655Z,19.17
2023-03-15T20:36:17.807Z,18.10
2023-03-15T20:38:45.993Z,17.43
2023-03-15T20:41:15.391Z,16.50
2023-03-15T20:43:42.295Z,18.00
2023-03-15T20:46:09.893Z,17.47
2023-03-15T20:48:36.862Z,15.47
2023-03-15T20:51:04.731Z,18.50
2023-03-15T20:53:35.786Z,15.20
2023-03-15T20:56:03.487Z,16.97
2023-03-15T20:58:30.931Z,17.03
2023-03-15T21:01:05.999Z,21.55
2023-03-15T21:03:34.322Z,17.60
2023-03-15T21:06:03.145Z,20.57
2023-03-15T21:08:30.192Z,20.27
2023-03-15T21:10:56.819Z,18.40
2023-03-15T21:13:24.121Z,17.43
2023-03-15T21:15:53.184Z,18.60
2023-03-15T21:18:22.428Z,17.53
2023-03-15T21:21:03.166Z,15.77
2023-03-15T21:23:33.506Z,19.13
2023-03-15T21:26:09.408Z,18.20
2023-03-15T21:28:36.430Z,14.73
2023-03-15T21:31:03.170Z,17.10
2023-03-15T21:33:31.288Z,16.57
2023-03-15T21:35:59.376Z,15.20
2023-03-15T21:38:31.312Z,16.30
2023-03-15T21:40:59.464Z,22.20
2023-03-15T21:43:31.836Z,16.67
2023-03-15T21:46:07.331Z,18.07
2023-03-15T21:48:40.545Z,16.87
2023-03-15T21:51:07.585Z,18.20
2023-03-15T21:53:35.323Z,16.87
2023-03-15T21:56:03.774Z,15.73
2023-03-15T21:58:30.869Z,16.23
2023-03-15T22:01:04.837Z,14.80
2023-03-15T22:03:32.642Z,17.03
2023-03-15T22:05:59.370Z,20.57
2023-03-15T22:08:26.067Z,16.63
2023-03-15T22:10:57.691Z,17.10
2023-03-15T22:13:25.323Z,19.17
2023-03-15T22:15:52.327Z,20.42
2023-03-15T22:18:19.727Z,19.70
2023-03-15T22:20:48.557Z,15.60
2023-03-15T22:23:15.278Z,19.63
2023-03-15T22:25:41.850Z,16.77
2023-03-15T22:28:08.415Z,19.23
2023-03-15T22:30:35.129Z,19.93
2023-03-15T22:33:01.789Z,22.43
2023-03-15T22:35:28.610Z,18.17
2023-03-15T22:37:56.850Z,18.73
2023-03-15T22:40:25.147Z,28.37
2023-03-15T22:42:52.731Z,15.77
2023-03-15T22:45:22.209Z,20.80
2023-03-15T22:47:50.433Z,17.63
2023-03-15T22:50:17.246Z,20.37
2023-03-15T22:52:43.907Z,19.33
2023-03-15T22:55:11.646Z,19.57
2023-03-15T22:57:38.569Z,19.40
2023-03-15T23:00:13.555Z,17.97
2023-03-15T23:02:41.506Z,17.07
2023-03-15T23:05:09.012Z,18.30
2023-03-15T23:07:35.793Z,21.57
2023-03-15T23:10:03.052Z,18.93
2023-03-15T23:12:35.912Z,22.50
2023-03-15T23:15:04.492Z,19.63
2023-03-15T23:17:31.393Z,21.07
2023-03-15T23:19:58.011Z,19.07
2023-03-15T23:22:24.585Z,18.73
2023-03-15T23:24:51.505Z,23.90
2023-03-15T23:27:18.083Z,19.83
2023-03-15T23:29:54.043Z,21.90
2023-03-15T23:32:21.393Z,20.23
2023-03-15T23:34:57.024Z,24.40
2023-03-15T23:37:24.317Z,20.47
2023-03-15T23:39:53.302Z,22.27
2023-03-15T23:42:19.848Z,20.97
2023-03-15T23:44:46.375Z,20.63
2023-03-15T23:47:12.925Z,24.27
2023-03-15T23:49:39.482Z,23.47
2023-03-15T23:52:06.265Z,21.57
2023-03-15T23:54:41.058Z,21.17
2023-03-15T23:57:08.850Z,21.40
2023-03-15T23:59:36.506Z,20.70
